KVJI

Details ICAO KVJI
Name Virginia Highlands
Region United States
Timezone America/New_York (UTC-4.0)
Plans Departing 19
Arriving 33
Stats Elevation 2,087 ft / 636 m (AMSL)
Location 36.687100° -82.033300°
Runways 1
Magnetic Variation 7.475° W
Sunrise 2022-10-02 11:25:18 UTC / 2022-10-02 07:25:18 Local
Sunset 2022-10-02 23:12:04 UTC / 2022-10-02 19:12:04 Local
Advertisement - Login to hide

Runways

ID Width Length Bearing (true/mag) Surface Threshold Overrun Markings Lighting
06 75 ft / 23 m 4,467 ft / 1,361 m 55.90° / 63.38° ASPHALT 0 ft / 0 m 98 ft / 30 m APP EDGE THRESHOLD
24 75 ft / 23 m 4,467 ft / 1,361 m 235.91° / 243.39° ASPHALT 0 ft / 0 m 0 ft / 0 m APP EDGE THRESHOLD ODALS REIL-OMNI

Approach Navaids

Runway Type Ident Frequency Range Bearing (true/mag) Slope Elevation
24 DME IVJI 108.30 MHz 18 nm / 33 km - - 2,087 ft / 636 m (AMSL)
24 LOC-LOC IVJI 108.30 MHz 18 nm / 33 km 235.90° / 243.38° - 2,087 ft / 636 m (AMSL)

Map

Weather


0- 5 10 15 20 25 30 35+ Temperature / °C

Clouds and Precipitation
Forecast for 2022-10-02 12:00 UTC. Updated 24 minutes ago

Ground ~20,000 ft ~40,000 ft Winds

METAR

KVJI 020935Z AUTO 28005KT 2SM BR OVC005 10/10 A2999 RMK AO2 T00950095

TAF

Not found

Frequencies

Recorded 128.12 MHz AWOS 3
Unicom 122.80 MHz CTAF/UNICOM
Warning: Do not use this data for real-world aviation or navigation. No guarantee of current accuracy is given.